Sivas, Turkey
Current Conditions -  °F | °C
As of 9:23 AM on Thursday 29 Jan 2015 (Local Time) from LTAR Reporting Station
Light Fog Light Fog  
Wind Chill: 20°   Ceiling: 10000
Heat Index: 27°   Visibility: 1.7mi
Dew Point: 25°   Wind: 6mph
Humidity: 93%   Direction: 190°S
Pressure: 29.88"   Gusts: NA
Location:  39.75°N, 37.02°E
Report Text: LTAR 290623Z 19005KT 2800 R01/P1500N R19/1200D BCFG SCT030 BKN100M03/M04 Q1012 R010///05 RMK RWY19 09004KT
Loading
Personal Weather Stations






























Interactive Weather Map New forecast layout! Learn more

10-Day Weather Forecast

Advertisements
Track Severe Weather on mobile